createdAt,value
2023-04-08T00:01:22.660Z,18.30
2023-04-08T00:03:49.699Z,16.73
2023-04-08T00:06:16.536Z,17.30
2023-04-08T00:08:43.313Z,17.63
2023-04-08T00:11:10.105Z,17.33
2023-04-08T00:13:36.837Z,15.80
2023-04-08T00:16:03.801Z,14.03
2023-04-08T00:18:30.500Z,15.93
2023-04-08T00:20:57.330Z,19.37
2023-04-08T00:23:24.087Z,19.43
2023-04-08T00:25:51.149Z,17.63
2023-04-08T00:28:17.905Z,18.70
2023-04-08T00:30:44.663Z,18.73
2023-04-08T00:33:11.446Z,16.90
2023-04-08T00:35:38.301Z,20.40
2023-04-08T00:38:08.062Z,19.77
2023-04-08T00:40:37.334Z,17.07
2023-04-08T00:43:06.482Z,18.03
2023-04-08T00:45:35.015Z,21.00
2023-04-08T00:48:03.553Z,20.67
2023-04-08T00:50:30.700Z,21.57
2023-04-08T00:52:57.487Z,18.63
2023-04-08T00:55:24.347Z,19.60
2023-04-08T00:57:51.317Z,19.37
2023-04-08T01:00:18.187Z,26.80
2023-04-08T01:03:22.480Z,20.43
2023-04-08T01:06:32.029Z,25.20
2023-04-08T01:09:00.949Z,51.67
2023-04-08T01:11:31.214Z,21.37
2023-04-08T01:14:00.708Z,30.53
2023-04-08T01:16:28.239Z,30.50
2023-04-08T01:18:56.480Z,49.07
2023-04-08T01:21:24.880Z,37.17
2023-04-08T01:24:13.924Z,34.27
2023-04-08T01:26:41.625Z,27.40
2023-04-08T01:29:11.608Z,52.27
2023-04-08T01:31:42.695Z,31.63
2023-04-08T01:34:11.860Z,22.67
2023-04-08T01:36:40.485Z,13.70
2023-04-08T01:39:08.372Z,21.57
2023-04-08T01:41:36.735Z,21.57
2023-04-08T01:44:06.378Z,30.23
2023-04-08T01:46:34.597Z,22.77
2023-04-08T01:49:02.452Z,23.13
2023-04-08T01:51:32.267Z,16.47
2023-04-08T01:53:59.180Z,32.90
2023-04-08T01:56:32.978Z,31.90
2023-04-08T01:59:02.048Z,29.53
2023-04-08T02:01:32.619Z,21.03
2023-04-08T02:04:03.186Z,17.07
2023-04-08T02:06:33.567Z,21.50
2023-04-08T02:09:01.957Z,17.17
2023-04-08T02:11:29.295Z,30.23
2023-04-08T02:13:56.266Z,24.53
2023-04-08T02:16:36.800Z,16.07
2023-04-08T02:19:20.032Z,16.27
2023-04-08T02:21:55.230Z,34.03
2023-04-08T02:24:22.524Z,25.53
2023-04-08T02:26:52.040Z,30.57
2023-04-08T02:29:19.477Z,20.40
2023-04-08T02:31:47.125Z,32.07
2023-04-08T02:34:16.048Z,13.63
2023-04-08T02:36:46.038Z,11.97
2023-04-08T02:39:12.986Z,17.00
2023-04-08T02:41:39.788Z,11.73
2023-04-08T02:44:06.573Z,39.90
2023-04-08T02:46:33.353Z,27.10
2023-04-08T02:49:00.375Z,16.43
2023-04-08T02:51:27.930Z,19.00
2023-04-08T02:53:55.384Z,19.70
2023-04-08T02:56:22.685Z,14.07
2023-04-08T02:58:52.327Z,19.10
2023-04-08T03:01:19.391Z,13.97
2023-04-08T03:03:46.597Z,29.83
2023-04-08T03:06:13.482Z,18.40
2023-04-08T03:08:40.303Z,41.73
2023-04-08T03:11:07.177Z,26.03
2023-04-08T03:13:34.697Z,20.40
2023-04-08T03:16:01.618Z,12.73
2023-04-08T03:18:29.549Z,22.87
2023-04-08T03:20:56.437Z,17.83
2023-04-08T03:23:23.160Z,23.87
2023-04-08T03:25:51.452Z,18.60
2023-04-08T03:28:18.249Z,14.43
2023-04-08T03:30:45.312Z,16.40
2023-04-08T03:33:12.426Z,17.73
2023-04-08T03:35:39.247Z,18.87
2023-04-08T03:38:06.090Z,11.87
2023-04-08T03:40:32.862Z,12.50
2023-04-08T03:42:59.625Z,14.63
2023-04-08T03:45:26.440Z,18.70
2023-04-08T03:47:53.291Z,22.07
2023-04-08T03:50:20.198Z,16.67
2023-04-08T03:52:46.960Z,14.10
2023-04-08T03:55:13.651Z,22.57
2023-04-08T03:57:41.037Z,16.73
2023-04-08T04:00:08.941Z,13.90
2023-04-08T04:02:36.870Z,12.00
2023-04-08T04:05:04.157Z,27.27
2023-04-08T04:07:31.043Z,32.13
2023-04-08T04:09:57.934Z,40.33
2023-04-08T04:12:24.792Z,23.40
2023-04-08T04:14:51.605Z,36.27
2023-04-08T04:17:18.364Z,24.77
2023-04-08T04:19:45.204Z,17.77
2023-04-08T04:22:11.972Z,18.00
2023-04-08T04:24:38.721Z,46.33
2023-04-08T04:27:05.561Z,36.73
2023-04-08T04:29:32.506Z,18.90
2023-04-08T04:31:59.252Z,25.23
2023-04-08T04:34:26.019Z,25.00
2023-04-08T04:36:52.786Z,20.23
2023-04-08T04:39:19.619Z,30.57
2023-04-08T04:41:47.357Z,23.97
2023-04-08T04:44:14.049Z,20.30
2023-04-08T04:46:41.020Z,20.13
2023-04-08T04:49:07.784Z,16.83
2023-04-08T04:51:34.610Z,18.37
2023-04-08T04:54:01.366Z,18.67
2023-04-08T04:56:28.523Z,18.90
2023-04-08T04:58:55.263Z,21.17
2023-04-08T05:01:22.221Z,22.03
2023-04-08T05:03:50.488Z,19.60
2023-04-08T05:06:17.259Z,18.37
2023-04-08T05:08:44.009Z,20.83
2023-04-08T05:11:11.686Z,19.20
2023-04-08T05:13:38.458Z,16.30
2023-04-08T05:16:05.614Z,18.97
2023-04-08T05:18:32.326Z,18.43
2023-04-08T05:20:59.215Z,18.90
2023-04-08T05:23:26.033Z,21.63
2023-04-08T05:25:52.795Z,18.47
2023-04-08T05:28:19.883Z,15.77
2023-04-08T05:30:52.432Z,14.87
2023-04-08T05:33:19.445Z,13.40
2023-04-08T05:35:46.630Z,14.17
2023-04-08T05:38:13.410Z,12.90
2023-04-08T05:40:40.409Z,11.13
2023-04-08T05:43:07.165Z,12.30
2023-04-08T05:45:33.904Z,12.23
2023-04-08T05:48:02.773Z,11.70
2023-04-08T05:50:29.517Z,11.17
2023-04-08T05:52:56.261Z,10.23
2023-04-08T05:55:23.150Z,10.77
2023-04-08T05:57:49.847Z,10.67
2023-04-08T06:00:16.970Z,10.47
2023-04-08T06:02:43.952Z,9.93
2023-04-08T06:05:11.052Z,11.20
2023-04-08T06:07:37.891Z,11.33
2023-04-08T06:10:05.822Z,12.93
2023-04-08T06:12:37.167Z,10.40
2023-04-08T06:15:04.739Z,11.03
2023-04-08T06:17:31.568Z,10.67
2023-04-08T06:19:58.302Z,11.70
2023-04-08T06:22:25.098Z,12.50
2023-04-08T06:24:52.048Z,10.87
2023-04-08T06:27:18.834Z,10.70
2023-04-08T06:29:45.597Z,9.73
2023-04-08T06:32:12.746Z,10.00
2023-04-08T06:34:40.035Z,9.90
2023-04-08T06:37:07.497Z,10.20
2023-04-08T06:39:34.671Z,15.00
2023-04-08T06:42:01.605Z,11.27
2023-04-08T06:44:28.454Z,10.27
2023-04-08T06:46:56.362Z,10.20
2023-04-08T06:49:23.169Z,11.50
2023-04-08T06:51:50.374Z,10.73
2023-04-08T06:54:17.073Z,12.67
2023-04-08T06:56:43.826Z,10.57
2023-04-08T06:59:10.615Z,11.17
2023-04-08T07:01:37.506Z,10.43
2023-04-08T07:04:04.372Z,10.53
2023-04-08T07:06:31.097Z,12.83
2023-04-08T07:08:57.839Z,10.43
2023-04-08T07:11:24.744Z,10.40
2023-04-08T07:13:52.400Z,11.70
2023-04-08T07:16:19.196Z,10.97
2023-04-08T07:18:47.889Z,10.97
2023-04-08T07:21:14.753Z,9.90
2023-04-08T07:23:41.532Z,10.73
2023-04-08T07:26:08.477Z,10.97
2023-04-08T07:28:35.480Z,11.20
2023-04-08T07:31:15.112Z,12.20
2023-04-08T07:33:43.772Z,12.10
2023-04-08T07:36:15.181Z,10.57
2023-04-08T07:38:42.083Z,12.33
2023-04-08T07:41:08.860Z,9.43
2023-04-08T07:43:37.306Z,10.37
2023-04-08T07:46:07.829Z,10.23
2023-04-08T07:48:35.557Z,12.23
2023-04-08T07:51:11.318Z,14.33
2023-04-08T07:53:39.335Z,10.13
2023-04-08T07:56:18.155Z,9.50
2023-04-08T07:58:46.469Z,10.83
2023-04-08T08:01:22.896Z,10.47
2023-04-08T08:03:52.082Z,8.93
2023-04-08T08:06:19.595Z,10.27
2023-04-08T08:08:46.323Z,10.87
2023-04-08T08:11:13.236Z,8.93
2023-04-08T08:13:41.218Z,9.27
2023-04-08T08:16:12.029Z,9.45
2023-04-08T08:18:41.287Z,9.55
2023-04-08T08:21:09.159Z,7.75
2023-04-08T08:23:37.437Z,7.90
2023-04-08T08:26:09.922Z,8.07
2023-04-08T08:28:39.757Z,8.10
2023-04-08T08:31:07.043Z,7.45
2023-04-08T08:33:34.486Z,10.45
2023-04-08T08:36:01.596Z,7.80
2023-04-08T08:38:28.343Z,9.38
2023-04-08T08:40:57.215Z,7.80
2023-04-08T08:43:27.234Z,12.63
2023-04-08T08:45:55.062Z,11.23
2023-04-08T08:48:22.010Z,8.27
2023-04-08T08:50:48.877Z,8.43
2023-04-08T08:53:16.153Z,7.28
2023-04-08T08:56:13.430Z,8.50
2023-04-08T08:58:30.907Z,7.13
2023-04-08T09:00:57.617Z,7.57
2023-04-08T09:03:29.495Z,6.25
2023-04-08T09:06:04.077Z,8.57
2023-04-08T09:08:37.862Z,7.60
2023-04-08T09:11:12.478Z,7.15
2023-04-08T09:13:39.620Z,8.63
2023-04-08T09:16:12.834Z,6.72
2023-04-08T09:18:43.235Z,7.00
2023-04-08T09:21:11.731Z,6.60
2023-04-08T09:23:48.419Z,7.03
2023-04-08T09:26:24.496Z,5.70
2023-04-08T09:29:14.218Z,8.48
2023-04-08T09:31:42.574Z,7.20
2023-04-08T09:34:12.658Z,5.28
2023-04-08T09:36:39.511Z,6.50
2023-04-08T09:39:07.618Z,7.45
2023-04-08T09:41:36.049Z,5.53
2023-04-08T09:44:11.391Z,7.43
2023-04-08T09:46:50.789Z,6.95
2023-04-08T09:49:40.877Z,5.63
2023-04-08T09:52:24.878Z,5.20
2023-04-08T09:55:12.758Z,6.72
2023-04-08T09:58:27.710Z,9.40
2023-04-08T10:00:55.630Z,6.03
2023-04-08T10:03:36.078Z,9.32
2023-04-08T10:06:04.480Z,8.35
2023-04-08T10:08:32.936Z,7.18
2023-04-08T10:11:00.004Z,8.55
2023-04-08T10:13:28.806Z,8.40
2023-04-08T10:16:22.175Z,6.40
2023-04-08T10:18:53.835Z,8.98
2023-04-08T10:21:47.926Z,6.65
2023-04-08T10:24:14.730Z,7.00
2023-04-08T10:26:45.162Z,7.95
2023-04-08T10:29:17.927Z,8.73
2023-04-08T10:31:50.670Z,7.38
2023-04-08T10:34:22.726Z,7.70
2023-04-08T10:36:50.042Z,8.32
2023-04-08T10:39:17.364Z,6.95
2023-04-08T10:41:47.399Z,7.75
2023-04-08T10:44:24.080Z,8.07
2023-04-08T10:46:53.575Z,8.18
2023-04-08T10:49:31.973Z,8.65
2023-04-08T10:51:58.923Z,7.20
2023-04-08T10:54:27.244Z,7.63
2023-04-08T10:56:54.651Z,7.68
2023-04-08T10:59:32.351Z,8.73
2023-04-08T11:02:02.524Z,7.80
2023-04-08T11:04:29.946Z,7.22
2023-04-08T11:07:00.260Z,6.57
2023-04-08T11:09:27.461Z,7.47
2023-04-08T11:11:54.834Z,5.97
2023-04-08T11:14:23.642Z,6.22
2023-04-08T11:16:51.787Z,8.02
2023-04-08T11:19:20.554Z,6.43
2023-04-08T11:21:48.156Z,8.15
2023-04-08T11:24:16.858Z,6.47
2023-04-08T11:26:43.964Z,6.32
2023-04-08T11:29:17.615Z,7.63
2023-04-08T11:31:44.733Z,7.75
2023-04-08T11:34:11.664Z,6.82
2023-04-08T11:36:42.048Z,9.40
2023-04-08T11:39:12.209Z,7.80
2023-04-08T11:41:40.557Z,9.35
2023-04-08T11:44:08.455Z,6.13
2023-04-08T11:46:35.782Z,7.90
2023-04-08T11:49:09.981Z,8.98
2023-04-08T11:51:57.776Z,7.25
2023-04-08T11:54:33.587Z,9.02
2023-04-08T11:57:01.416Z,6.75
2023-04-08T11:59:29.620Z,8.85
2023-04-08T12:01:57.600Z,7.45
2023-04-08T12:04:24.705Z,7.53
2023-04-08T12:06:52.339Z,7.05
2023-04-08T12:09:22.155Z,7.70
2023-04-08T12:11:48.979Z,9.63
2023-04-08T12:14:15.986Z,7.13
2023-04-08T12:16:42.844Z,8.57
2023-04-08T12:19:09.748Z,8.27
2023-04-08T12:21:36.678Z,10.38
2023-04-08T12:24:05.006Z,8.65
2023-04-08T12:26:31.785Z,8.70
2023-04-08T12:28:58.549Z,8.55
2023-04-08T12:31:30.014Z,6.97
2023-04-08T12:33:56.939Z,7.85
2023-04-08T12:36:23.788Z,7.82
2023-04-08T12:38:52.045Z,8.48
2023-04-08T12:41:19.058Z,7.20
2023-04-08T12:43:45.819Z,7.53
2023-04-08T12:46:13.272Z,10.50
2023-04-08T12:48:40.837Z,8.70
2023-04-08T12:51:10.255Z,7.55
2023-04-08T12:53:37.200Z,11.13
2023-04-08T12:56:05.431Z,7.75
2023-04-08T12:58:32.209Z,8.77
2023-04-08T13:01:00.253Z,7.40
2023-04-08T13:03:30.294Z,8.43
2023-04-08T13:05:59.133Z,8.32
2023-04-08T13:08:26.088Z,6.63
2023-04-08T13:10:53.092Z,10.25
2023-04-08T13:13:19.942Z,12.73
2023-04-08T13:15:47.465Z,7.93
2023-04-08T13:18:14.253Z,8.10
2023-04-08T13:20:41.020Z,8.82
2023-04-08T13:23:07.897Z,8.48
2023-04-08T13:25:34.730Z,8.93
2023-04-08T13:28:01.473Z,9.70
2023-04-08T13:30:28.229Z,11.52
2023-04-08T13:32:55.210Z,10.25
2023-04-08T13:35:24.964Z,7.82
2023-04-08T13:37:53.225Z,7.30
2023-04-08T13:40:20.048Z,7.40
2023-04-08T13:42:47.851Z,8.70
2023-04-08T13:45:14.810Z,7.78
2023-04-08T13:47:41.625Z,8.70
2023-04-08T13:50:11.650Z,8.55
2023-04-08T13:52:38.457Z,8.65
2023-04-08T13:55:05.966Z,8.32
2023-04-08T13:57:32.847Z,8.70
2023-04-08T13:59:59.650Z,8.50
2023-04-08T14:02:26.965Z,7.15
2023-04-08T14:04:53.962Z,8.30
2023-04-08T14:07:20.789Z,6.88
2023-04-08T14:09:47.545Z,8.65
2023-04-08T14:12:14.225Z,7.30
2023-04-08T14:14:41.202Z,6.93
2023-04-08T14:17:08.030Z,6.22
2023-04-08T14:19:35.311Z,5.55
2023-04-08T14:22:02.065Z,6.38
2023-04-08T14:24:28.763Z,7.32
2023-04-08T14:26:55.586Z,7.90
2023-04-08T14:29:22.533Z,5.78
2023-04-08T14:31:49.319Z,6.93
2023-04-08T14:34:16.190Z,7.07
2023-04-08T14:36:42.979Z,6.90
2023-04-08T14:39:09.737Z,8.40
2023-04-08T14:41:38.505Z,7.78
2023-04-08T14:44:05.597Z,8.15
2023-04-08T14:46:32.425Z,6.80
2023-04-08T14:48:59.158Z,8.63
2023-04-08T14:51:25.855Z,11.10
2023-04-08T14:53:52.668Z,8.02
2023-04-08T14:56:22.117Z,8.43
2023-04-08T14:58:49.071Z,8.38
2023-04-08T15:01:16.006Z,7.50
2023-04-08T15:03:42.791Z,8.07
2023-04-08T15:06:09.573Z,7.72
2023-04-08T15:08:36.784Z,11.32
2023-04-08T15:11:03.617Z,10.27
2023-04-08T15:13:30.356Z,10.00
2023-04-08T15:15:57.165Z,9.07
2023-04-08T15:18:24.036Z,6.97
2023-04-08T15:20:50.811Z,8.55
2023-04-08T15:23:17.661Z,8.48
2023-04-08T15:25:44.380Z,7.95
2023-04-08T15:28:11.193Z,8.95
2023-04-08T15:30:38.021Z,7.95
2023-04-08T15:33:05.174Z,9.70
2023-04-08T15:35:32.783Z,9.43
2023-04-08T15:38:00.488Z,8.27
2023-04-08T15:40:27.382Z,8.20
2023-04-08T15:42:54.101Z,8.45
2023-04-08T15:45:22.124Z,7.85
2023-04-08T15:47:49.070Z,8.70
2023-04-08T15:50:17.175Z,8.32
2023-04-08T15:52:44.607Z,9.00
2023-04-08T15:55:11.785Z,7.88
2023-04-08T15:57:38.773Z,8.63
2023-04-08T16:00:12.106Z,8.85
2023-04-08T16:02:39.634Z,10.18
2023-04-08T16:05:07.312Z,9.20
2023-04-08T16:07:34.061Z,9.35
2023-04-08T16:10:00.917Z,9.35
2023-04-08T16:12:27.619Z,10.18
2023-04-08T16:14:54.765Z,9.82
2023-04-08T16:17:21.983Z,10.27
2023-04-08T16:19:54.282Z,10.13
2023-04-08T16:22:21.161Z,10.35
2023-04-08T16:24:47.966Z,8.20
2023-04-08T16:27:14.775Z,9.02
2023-04-08T16:29:42.121Z,9.57
2023-04-08T16:32:09.017Z,9.90
2023-04-08T16:34:36.152Z,7.47
2023-04-08T16:37:03.099Z,7.75
2023-04-08T16:39:36.900Z,9.38
2023-04-08T16:42:04.019Z,10.93
2023-04-08T16:44:32.113Z,8.50
2023-04-08T16:47:00.869Z,8.73
2023-04-08T16:49:27.674Z,10.05
2023-04-08T16:51:54.429Z,9.15
2023-04-08T16:54:21.162Z,9.73
2023-04-08T16:56:47.896Z,11.18
2023-04-08T16:59:14.668Z,10.82
2023-04-08T17:01:41.468Z,12.88
2023-04-08T17:04:08.281Z,13.95
2023-04-08T17:06:36.147Z,10.25
2023-04-08T17:09:04.090Z,11.80
2023-04-08T17:11:31.241Z,11.73
2023-04-08T17:13:58.617Z,13.80
2023-04-08T17:16:25.513Z,12.98
2023-04-08T17:18:52.539Z,12.50
2023-04-08T17:21:23.318Z,10.98
2023-04-08T17:23:52.535Z,14.10
2023-04-08T17:26:20.187Z,11.55
2023-04-08T17:28:47.126Z,12.75
2023-04-08T17:31:14.314Z,11.38
2023-04-08T17:33:41.563Z,13.88
2023-04-08T17:36:08.414Z,10.30
2023-04-08T17:38:39.549Z,11.88
2023-04-08T17:41:08.133Z,11.75
2023-04-08T17:43:35.254Z,10.02
2023-04-08T17:46:02.091Z,10.50
2023-04-08T17:48:30.729Z,13.13
2023-04-08T17:51:06.618Z,16.23
2023-04-08T17:53:35.093Z,10.63
2023-04-08T17:56:01.840Z,10.02
2023-04-08T17:58:28.733Z,10.23
2023-04-08T18:00:57.959Z,11.23
2023-04-08T18:03:24.785Z,10.68
2023-04-08T18:05:51.688Z,9.50
2023-04-08T18:08:18.956Z,9.55
2023-04-08T18:10:46.868Z,11.27
2023-04-08T18:13:13.868Z,11.55
2023-04-08T18:15:40.823Z,11.15
2023-04-08T18:18:07.564Z,12.55
2023-04-08T18:20:37.790Z,13.82
2023-04-08T18:23:04.872Z,13.77
2023-04-08T18:25:32.382Z,11.38
2023-04-08T18:27:59.518Z,12.45
2023-04-08T18:30:26.496Z,13.50
2023-04-08T18:32:53.381Z,11.07
2023-04-08T18:35:20.301Z,11.80
2023-04-08T18:37:47.033Z,12.25
2023-04-08T18:40:13.897Z,11.20
2023-04-08T18:42:40.710Z,13.35
2023-04-08T18:45:07.964Z,11.07
2023-04-08T18:47:34.853Z,13.90
2023-04-08T18:50:01.708Z,10.85
2023-04-08T18:52:29.172Z,12.82
2023-04-08T18:54:56.362Z,11.50
2023-04-08T18:57:23.129Z,13.68
2023-04-08T18:59:49.858Z,13.43
2023-04-08T19:02:16.733Z,10.20
2023-04-08T19:04:43.778Z,12.82
2023-04-08T19:07:11.897Z,12.55
2023-04-08T19:09:40.326Z,12.02
2023-04-08T19:12:09.671Z,13.75
2023-04-08T19:14:37.449Z,12.70
2023-04-08T19:17:04.187Z,13.15
2023-04-08T19:19:31.522Z,15.40
2023-04-08T19:21:58.377Z,14.60
2023-04-08T19:24:25.338Z,14.23
2023-04-08T19:26:53.110Z,13.05
2023-04-08T19:29:22.885Z,14.93
2023-04-08T19:31:49.709Z,13.32
2023-04-08T19:34:22.162Z,13.70
2023-04-08T19:36:49.020Z,13.77
2023-04-08T19:39:16.009Z,12.00
2023-04-08T19:41:42.809Z,13.05
2023-04-08T19:44:09.751Z,11.98
2023-04-08T19:46:37.267Z,12.23
2023-04-08T19:49:04.817Z,13.25
2023-04-08T19:51:32.799Z,14.70
2023-04-08T19:54:02.426Z,15.15
2023-04-08T19:56:33.870Z,13.90
2023-04-08T19:59:01.920Z,15.68
2023-04-08T20:01:29.289Z,14.15
2023-04-08T20:03:56.201Z,15.30
2023-04-08T20:06:23.231Z,14.38
2023-04-08T20:08:54.921Z,18.60
2023-04-08T20:11:21.826Z,13.82
2023-04-08T20:13:49.890Z,13.80
2023-04-08T20:16:17.014Z,14.23
2023-04-08T20:18:43.980Z,14.68
2023-04-08T20:21:13.847Z,13.48
2023-04-08T20:23:44.665Z,14.45
2023-04-08T20:26:13.374Z,13.40
2023-04-08T20:28:42.718Z,13.70
2023-04-08T20:31:09.542Z,13.23
2023-04-08T20:33:43.385Z,13.98
2023-04-08T20:36:14.395Z,14.23
2023-04-08T20:38:42.375Z,15.07
2023-04-08T20:41:09.126Z,14.32
2023-04-08T20:43:35.899Z,14.85
2023-04-08T20:46:02.611Z,13.63
2023-04-08T20:48:29.437Z,16.13
2023-04-08T20:50:57.776Z,18.88
2023-04-08T20:53:26.223Z,24.30
2023-04-08T20:55:53.000Z,16.88
2023-04-08T20:58:19.744Z,14.95
2023-04-08T21:00:47.605Z,13.68
2023-04-08T21:03:17.153Z,15.57
2023-04-08T21:05:44.511Z,13.65
2023-04-08T21:08:11.336Z,14.60
2023-04-08T21:10:40.602Z,13.13
2023-04-08T21:13:07.453Z,16.90
2023-04-08T21:15:34.165Z,13.20
2023-04-08T21:18:00.931Z,13.63
2023-04-08T21:20:27.797Z,13.35
2023-04-08T21:22:54.510Z,12.75
2023-04-08T21:25:21.259Z,11.40
2023-04-08T21:27:49.151Z,10.90
2023-04-08T21:30:17.768Z,13.23
2023-04-08T21:32:44.862Z,14.55
2023-04-08T21:35:11.614Z,13.52
2023-04-08T21:37:38.375Z,13.52
2023-04-08T21:40:08.021Z,14.05
2023-04-08T21:42:34.852Z,14.68
2023-04-08T21:45:01.755Z,13.63
2023-04-08T21:47:28.690Z,15.27
2023-04-08T21:49:56.269Z,16.05
2023-04-08T21:52:23.194Z,15.23
2023-04-08T21:54:51.413Z,14.00
2023-04-08T21:57:18.797Z,12.85
2023-04-08T21:59:45.833Z,15.77
2023-04-08T22:02:12.816Z,12.48
2023-04-08T22:04:39.924Z,15.40
2023-04-08T22:07:06.768Z,13.93
2023-04-08T22:09:33.781Z,14.48
2023-04-08T22:12:02.030Z,13.82
2023-04-08T22:14:28.854Z,13.82
2023-04-08T22:16:55.822Z,14.80
2023-04-08T22:19:22.868Z,16.30
2023-04-08T22:21:53.694Z,14.27
2023-04-08T22:24:21.157Z,14.75
2023-04-08T22:26:48.014Z,13.45
2023-04-08T22:29:14.766Z,12.95
2023-04-08T22:31:41.539Z,13.57
2023-04-08T22:34:08.414Z,13.25
2023-04-08T22:36:35.321Z,13.48
2023-04-08T22:39:02.058Z,13.10
2023-04-08T22:41:28.773Z,13.18
2023-04-08T22:43:55.587Z,14.30
2023-04-08T22:46:22.370Z,13.30
2023-04-08T22:48:49.548Z,12.30
2023-04-08T22:51:16.871Z,12.80
2023-04-08T22:53:43.708Z,13.45
2023-04-08T22:56:10.701Z,11.80
2023-04-08T22:58:37.506Z,13.57
2023-04-08T23:01:12.682Z,14.35
2023-04-08T23:03:39.591Z,12.73
2023-04-08T23:06:06.325Z,14.93
2023-04-08T23:08:33.106Z,13.37
2023-04-08T23:10:59.893Z,12.75
2023-04-08T23:13:28.371Z,15.33
2023-04-08T23:15:55.237Z,13.30
2023-04-08T23:18:22.227Z,16.05
2023-04-08T23:20:54.315Z,14.17
2023-04-08T23:23:24.165Z,18.60
2023-04-08T23:25:54.958Z,14.67
2023-04-08T23:28:22.563Z,15.35
2023-04-08T23:30:49.634Z,17.48
2023-04-08T23:33:16.434Z,12.82
2023-04-08T23:35:43.285Z,14.30
2023-04-08T23:38:10.193Z,14.73
2023-04-08T23:40:37.106Z,14.48
2023-04-08T23:43:04.019Z,14.38
2023-04-08T23:45:30.884Z,15.95
2023-04-08T23:47:57.716Z,15.13
2023-04-08T23:50:24.447Z,16.88
2023-04-08T23:52:52.421Z,19.50
2023-04-08T23:55:21.791Z,17.80
2023-04-08T23:57:50.581Z,16.58
